sensor_id;sensor_type;location;lat;lon;timestamp;P1;durP1;ratioP1;P2;durP2;ratioP2
7383;SDS011;3733;47.994;8.820;2023-02-23T00:00:14;28.60;;;16.80;;
7383;SDS011;3733;47.994;8.820;2023-02-23T00:02:45;30.73;;;18.13;;
7383;SDS011;3733;47.994;8.820;2023-02-23T00:05:14;32.77;;;17.20;;
7383;SDS011;3733;47.994;8.820;2023-02-23T00:07:42;26.40;;;16.20;;
7383;SDS011;3733;47.994;8.820;2023-02-23T00:10:10;23.53;;;16.03;;
7383;SDS011;3733;47.994;8.820;2023-02-23T00:12:37;26.93;;;15.77;;
7383;SDS011;3733;47.994;8.820;2023-02-23T00:15:03;28.23;;;16.53;;
7383;SDS011;3733;47.994;8.820;2023-02-23T00:17:29;30.13;;;16.70;;
7383;SDS011;3733;47.994;8.820;2023-02-23T00:19:56;31.90;;;16.30;;
7383;SDS011;3733;47.994;8.820;2023-02-23T00:22:25;29.03;;;17.20;;
7383;SDS011;3733;47.994;8.820;2023-02-23T00:24:51;24.27;;;15.90;;
7383;SDS011;3733;47.994;8.820;2023-02-23T00:27:16;27.20;;;15.70;;
7383;SDS011;3733;47.994;8.820;2023-02-23T00:29:43;25.17;;;15.97;;
7383;SDS011;3733;47.994;8.820;2023-02-23T00:32:08;30.20;;;16.60;;
7383;SDS011;3733;47.994;8.820;2023-02-23T00:34:34;32.40;;;17.60;;
7383;SDS011;3733;47.994;8.820;2023-02-23T00:37:00;27.03;;;15.80;;
7383;SDS011;3733;47.994;8.820;2023-02-23T00:39:26;31.73;;;17.10;;
7383;SDS011;3733;47.994;8.820;2023-02-23T00:41:53;27.07;;;15.93;;
7383;SDS011;3733;47.994;8.820;2023-02-23T00:44:20;32.43;;;16.83;;
7383;SDS011;3733;47.994;8.820;2023-02-23T00:46:47;29.03;;;17.23;;
7383;SDS011;3733;47.994;8.820;2023-02-23T00:49:15;27.23;;;16.00;;
7383;SDS011;3733;47.994;8.820;2023-02-23T00:51:41;30.10;;;17.10;;
7383;SDS011;3733;47.994;8.820;2023-02-23T00:54:07;28.77;;;17.57;;
7383;SDS011;3733;47.994;8.820;2023-02-23T00:56:38;31.00;;;17.00;;
7383;SDS011;3733;47.994;8.820;2023-02-23T00:59:04;28.53;;;17.23;;
7383;SDS011;3733;47.994;8.820;2023-02-23T01:01:30;29.07;;;17.03;;
7383;SDS011;3733;47.994;8.820;2023-02-23T01:03:56;33.60;;;17.50;;
7383;SDS011;3733;47.994;8.820;2023-02-23T01:06:22;29.67;;;17.90;;
7383;SDS011;3733;47.994;8.820;2023-02-23T01:08:49;30.17;;;17.03;;
7383;SDS011;3733;47.994;8.820;2023-02-23T01:11:21;26.07;;;16.87;;
7383;SDS011;3733;47.994;8.820;2023-02-23T01:13:55;28.03;;;16.67;;
7383;SDS011;3733;47.994;8.820;2023-02-23T01:16:23;28.37;;;16.70;;
7383;SDS011;3733;47.994;8.820;2023-02-23T01:18:52;30.83;;;16.83;;
7383;SDS011;3733;47.994;8.820;2023-02-23T01:21:21;26.33;;;16.20;;
7383;SDS011;3733;47.994;8.820;2023-02-23T01:23:49;30.73;;;17.47;;
7383;SDS011;3733;47.994;8.820;2023-02-23T01:26:19;28.93;;;17.40;;
7383;SDS011;3733;47.994;8.820;2023-02-23T01:28:49;32.40;;;18.17;;
7383;SDS011;3733;47.994;8.820;2023-02-23T01:31:35;28.53;;;16.87;;
7383;SDS011;3733;47.994;8.820;2023-02-23T01:34:03;38.73;;;17.00;;
7383;SDS011;3733;47.994;8.820;2023-02-23T01:36:32;29.07;;;16.80;;
7383;SDS011;3733;47.994;8.820;2023-02-23T01:38:59;30.07;;;16.13;;
7383;SDS011;3733;47.994;8.820;2023-02-23T01:41:25;26.50;;;17.13;;
7383;SDS011;3733;47.994;8.820;2023-02-23T01:43:54;29.70;;;17.40;;
7383;SDS011;3733;47.994;8.820;2023-02-23T01:46:30;27.47;;;17.07;;
7383;SDS011;3733;47.994;8.820;2023-02-23T01:48:57;32.90;;;17.57;;
7383;SDS011;3733;47.994;8.820;2023-02-23T01:51:24;28.43;;;16.80;;
7383;SDS011;3733;47.994;8.820;2023-02-23T01:53:59;31.07;;;18.00;;
7383;SDS011;3733;47.994;8.820;2023-02-23T01:56:29;26.93;;;17.97;;
7383;SDS011;3733;47.994;8.820;2023-02-23T01:58:58;26.00;;;16.73;;
7383;SDS011;3733;47.994;8.820;2023-02-23T02:01:29;30.07;;;17.20;;
7383;SDS011;3733;47.994;8.820;2023-02-23T02:03:57;33.10;;;17.50;;
7383;SDS011;3733;47.994;8.820;2023-02-23T02:06:26;36.10;;;17.37;;
7383;SDS011;3733;47.994;8.820;2023-02-23T02:08:54;28.83;;;16.50;;
7383;SDS011;3733;47.994;8.820;2023-02-23T02:11:23;30.30;;;16.67;;
7383;SDS011;3733;47.994;8.820;2023-02-23T02:13:53;28.37;;;16.63;;
7383;SDS011;3733;47.994;8.820;2023-02-23T02:19:19;26.83;;;16.20;;
7383;SDS011;3733;47.994;8.820;2023-02-23T02:29:33;23.50;;;14.93;;
7383;SDS011;3733;47.994;8.820;2023-02-23T02:51:39;34.23;;;16.70;;
7383;SDS011;3733;47.994;8.820;2023-02-23T02:56:51;31.67;;;17.47;;
7383;SDS011;3733;47.994;8.820;2023-02-23T02:59:21;27.07;;;16.70;;
7383;SDS011;3733;47.994;8.820;2023-02-23T03:02:10;26.03;;;15.93;;
7383;SDS011;3733;47.994;8.820;2023-02-23T03:05:12;27.83;;;16.30;;
7383;SDS011;3733;47.994;8.820;2023-02-23T03:16:50;29.00;;;17.20;;
7383;SDS011;3733;47.994;8.820;2023-02-23T03:19:48;29.83;;;18.07;;
7383;SDS011;3733;47.994;8.820;2023-02-23T03:30:08;25.20;;;16.00;;
7383;SDS011;3733;47.994;8.820;2023-02-23T03:32:55;32.70;;;17.57;;
7383;SDS011;3733;47.994;8.820;2023-02-23T03:36:19;30.27;;;16.30;;
7383;SDS011;3733;47.994;8.820;2023-02-23T03:42:16;28.47;;;17.43;;
7383;SDS011;3733;47.994;8.820;2023-02-23T03:45:07;32.77;;;16.00;;
7383;SDS011;3733;47.994;8.820;2023-02-23T03:47:54;29.93;;;16.77;;
7383;SDS011;3733;47.994;8.820;2023-02-23T03:50:42;24.37;;;15.37;;
7383;SDS011;3733;47.994;8.820;2023-02-23T03:53:43;26.10;;;16.03;;
7383;SDS011;3733;47.994;8.820;2023-02-23T03:56:34;26.63;;;15.90;;
7383;SDS011;3733;47.994;8.820;2023-02-23T03:59:21;24.33;;;15.00;;
7383;SDS011;3733;47.994;8.820;2023-02-23T04:02:11;27.43;;;16.30;;
7383;SDS011;3733;47.994;8.820;2023-02-23T04:04:59;24.57;;;14.80;;
7383;SDS011;3733;47.994;8.820;2023-02-23T04:07:48;33.80;;;17.20;;
7383;SDS011;3733;47.994;8.820;2023-02-23T04:10:34;34.17;;;16.80;;
7383;SDS011;3733;47.994;8.820;2023-02-23T04:13:24;30.57;;;16.57;;
7383;SDS011;3733;47.994;8.820;2023-02-23T04:15:57;28.20;;;15.40;;
7383;SDS011;3733;47.994;8.820;2023-02-23T04:18:32;26.00;;;16.97;;
7383;SDS011;3733;47.994;8.820;2023-02-23T04:20:59;28.80;;;17.60;;
7383;SDS011;3733;47.994;8.820;2023-02-23T04:23:26;28.40;;;17.13;;
7383;SDS011;3733;47.994;8.820;2023-02-23T04:25:52;31.03;;;16.80;;
7383;SDS011;3733;47.994;8.820;2023-02-23T04:28:19;31.33;;;16.33;;
7383;SDS011;3733;47.994;8.820;2023-02-23T04:30:45;29.53;;;16.27;;
7383;SDS011;3733;47.994;8.820;2023-02-23T04:33:11;29.83;;;17.03;;
7383;SDS011;3733;47.994;8.820;2023-02-23T04:35:37;26.73;;;16.93;;
7383;SDS011;3733;47.994;8.820;2023-02-23T04:38:04;30.00;;;17.33;;
7383;SDS011;3733;47.994;8.820;2023-02-23T04:40:29;33.03;;;17.97;;
7383;SDS011;3733;47.994;8.820;2023-02-23T04:42:55;27.33;;;16.63;;
7383;SDS011;3733;47.994;8.820;2023-02-23T04:45:21;30.90;;;16.87;;
7383;SDS011;3733;47.994;8.820;2023-02-23T04:47:48;30.23;;;16.73;;
7383;SDS011;3733;47.994;8.820;2023-02-23T04:50:15;26.30;;;15.90;;
7383;SDS011;3733;47.994;8.820;2023-02-23T04:52:41;32.83;;;17.67;;
7383;SDS011;3733;47.994;8.820;2023-02-23T04:55:07;31.43;;;17.03;;
7383;SDS011;3733;47.994;8.820;2023-02-23T04:57:40;26.77;;;15.60;;
7383;SDS011;3733;47.994;8.820;2023-02-23T05:00:06;34.10;;;16.97;;
7383;SDS011;3733;47.994;8.820;2023-02-23T05:02:32;30.00;;;16.67;;
7383;SDS011;3733;47.994;8.820;2023-02-23T05:04:57;33.73;;;17.93;;
7383;SDS011;3733;47.994;8.820;2023-02-23T05:07:23;30.00;;;17.83;;
7383;SDS011;3733;47.994;8.820;2023-02-23T05:09:49;26.87;;;17.30;;
7383;SDS011;3733;47.994;8.820;2023-02-23T05:12:14;38.17;;;19.20;;
7383;SDS011;3733;47.994;8.820;2023-02-23T05:14:40;33.80;;;16.20;;
7383;SDS011;3733;47.994;8.820;2023-02-23T05:17:06;26.57;;;16.80;;
7383;SDS011;3733;47.994;8.820;2023-02-23T05:19:32;30.83;;;17.83;;
7383;SDS011;3733;47.994;8.820;2023-02-23T05:21:57;26.00;;;15.23;;
7383;SDS011;3733;47.994;8.820;2023-02-23T05:24:23;30.60;;;16.50;;
7383;SDS011;3733;47.994;8.820;2023-02-23T05:26:49;28.67;;;16.90;;
7383;SDS011;3733;47.994;8.820;2023-02-23T05:29:15;27.53;;;15.47;;
7383;SDS011;3733;47.994;8.820;2023-02-23T05:31:41;32.40;;;17.47;;
7383;SDS011;3733;47.994;8.820;2023-02-23T05:34:06;27.80;;;15.90;;
7383;SDS011;3733;47.994;8.820;2023-02-23T05:36:32;27.13;;;15.60;;
7383;SDS011;3733;47.994;8.820;2023-02-23T05:38:58;22.73;;;14.90;;
7383;SDS011;3733;47.994;8.820;2023-02-23T05:41:24;28.80;;;16.07;;
7383;SDS011;3733;47.994;8.820;2023-02-23T05:43:50;24.57;;;15.93;;
7383;SDS011;3733;47.994;8.820;2023-02-23T05:46:21;30.57;;;16.90;;
7383;SDS011;3733;47.994;8.820;2023-02-23T05:48:49;28.03;;;17.30;;
7383;SDS011;3733;47.994;8.820;2023-02-23T05:51:16;34.13;;;17.30;;
7383;SDS011;3733;47.994;8.820;2023-02-23T05:53:42;29.13;;;16.13;;
7383;SDS011;3733;47.994;8.820;2023-02-23T05:56:11;31.23;;;18.10;;
7383;SDS011;3733;47.994;8.820;2023-02-23T05:58:38;33.43;;;17.63;;
7383;SDS011;3733;47.994;8.820;2023-02-23T06:01:03;26.40;;;17.20;;
7383;SDS011;3733;47.994;8.820;2023-02-23T06:03:29;24.67;;;16.30;;
7383;SDS011;3733;47.994;8.820;2023-02-23T06:05:56;36.20;;;17.43;;
7383;SDS011;3733;47.994;8.820;2023-02-23T06:08:24;26.10;;;16.30;;
7383;SDS011;3733;47.994;8.820;2023-02-23T06:10:50;28.50;;;18.27;;
7383;SDS011;3733;47.994;8.820;2023-02-23T06:13:16;28.20;;;16.43;;
7383;SDS011;3733;47.994;8.820;2023-02-23T06:15:43;31.90;;;17.13;;
7383;SDS011;3733;47.994;8.820;2023-02-23T06:18:09;30.33;;;16.90;;
7383;SDS011;3733;47.994;8.820;2023-02-23T06:20:35;30.47;;;16.93;;
7383;SDS011;3733;47.994;8.820;2023-02-23T06:23:02;28.00;;;15.90;;
7383;SDS011;3733;47.994;8.820;2023-02-23T06:25:29;33.77;;;17.37;;
7383;SDS011;3733;47.994;8.820;2023-02-23T06:27:55;30.23;;;17.60;;
7383;SDS011;3733;47.994;8.820;2023-02-23T06:30:21;28.53;;;16.77;;
7383;SDS011;3733;47.994;8.820;2023-02-23T06:32:47;25.50;;;16.57;;
7383;SDS011;3733;47.994;8.820;2023-02-23T06:35:13;25.93;;;16.53;;
7383;SDS011;3733;47.994;8.820;2023-02-23T06:37:38;32.37;;;17.33;;
7383;SDS011;3733;47.994;8.820;2023-02-23T06:40:04;26.60;;;16.80;;
7383;SDS011;3733;47.994;8.820;2023-02-23T06:42:30;34.37;;;16.90;;
7383;SDS011;3733;47.994;8.820;2023-02-23T06:44:56;27.70;;;17.10;;
7383;SDS011;3733;47.994;8.820;2023-02-23T06:47:22;31.67;;;18.37;;
7383;SDS011;3733;47.994;8.820;2023-02-23T06:49:47;34.40;;;18.20;;
7383;SDS011;3733;47.994;8.820;2023-02-23T06:52:13;28.67;;;17.33;;
7383;SDS011;3733;47.994;8.820;2023-02-23T06:54:39;32.70;;;18.83;;
7383;SDS011;3733;47.994;8.820;2023-02-23T06:57:06;32.40;;;18.00;;
7383;SDS011;3733;47.994;8.820;2023-02-23T06:59:33;34.07;;;19.10;;
7383;SDS011;3733;47.994;8.820;2023-02-23T07:01:58;34.00;;;19.40;;
7383;SDS011;3733;47.994;8.820;2023-02-23T07:04:24;37.17;;;19.43;;
7383;SDS011;3733;47.994;8.820;2023-02-23T07:06:50;39.40;;;21.33;;
7383;SDS011;3733;47.994;8.820;2023-02-23T07:09:16;34.40;;;19.83;;
7383;SDS011;3733;47.994;8.820;2023-02-23T07:11:42;36.40;;;19.60;;
7383;SDS011;3733;47.994;8.820;2023-02-23T07:14:09;32.00;;;18.10;;
7383;SDS011;3733;47.994;8.820;2023-02-23T07:16:35;38.00;;;17.60;;
7383;SDS011;3733;47.994;8.820;2023-02-23T07:19:02;26.20;;;16.70;;
7383;SDS011;3733;47.994;8.820;2023-02-23T07:21:28;29.47;;;17.20;;
7383;SDS011;3733;47.994;8.820;2023-02-23T07:23:56;34.37;;;16.40;;
7383;SDS011;3733;47.994;8.820;2023-02-23T07:26:22;27.40;;;17.57;;
7383;SDS011;3733;47.994;8.820;2023-02-23T07:28:48;29.03;;;17.60;;
7383;SDS011;3733;47.994;8.820;2023-02-23T07:31:13;29.63;;;17.77;;
7383;SDS011;3733;47.994;8.820;2023-02-23T07:33:39;31.30;;;17.63;;
7383;SDS011;3733;47.994;8.820;2023-02-23T07:36:05;33.50;;;16.90;;
7383;SDS011;3733;47.994;8.820;2023-02-23T07:38:30;30.07;;;17.77;;
7383;SDS011;3733;47.994;8.820;2023-02-23T07:40:56;29.10;;;17.80;;
7383;SDS011;3733;47.994;8.820;2023-02-23T07:43:22;30.07;;;16.50;;
7383;SDS011;3733;47.994;8.820;2023-02-23T07:45:48;32.00;;;18.60;;
7383;SDS011;3733;47.994;8.820;2023-02-23T07:48:15;28.87;;;17.17;;
7383;SDS011;3733;47.994;8.820;2023-02-23T07:50:42;34.90;;;19.13;;
7383;SDS011;3733;47.994;8.820;2023-02-23T07:53:07;41.43;;;20.30;;
7383;SDS011;3733;47.994;8.820;2023-02-23T07:55:33;41.30;;;20.07;;
7383;SDS011;3733;47.994;8.820;2023-02-23T07:58:00;39.50;;;21.20;;
7383;SDS011;3733;47.994;8.820;2023-02-23T08:00:26;35.37;;;19.33;;
7383;SDS011;3733;47.994;8.820;2023-02-23T08:02:52;35.03;;;19.87;;
7383;SDS011;3733;47.994;8.820;2023-02-23T08:05:18;39.97;;;20.17;;
7383;SDS011;3733;47.994;8.820;2023-02-23T08:07:43;33.73;;;18.77;;
7383;SDS011;3733;47.994;8.820;2023-02-23T08:10:10;32.60;;;19.30;;
7383;SDS011;3733;47.994;8.820;2023-02-23T08:12:36;30.53;;;17.50;;
7383;SDS011;3733;47.994;8.820;2023-02-23T08:15:02;28.70;;;16.70;;
7383;SDS011;3733;47.994;8.820;2023-02-23T08:17:32;33.40;;;18.30;;
7383;SDS011;3733;47.994;8.820;2023-02-23T08:20:04;31.60;;;16.93;;
7383;SDS011;3733;47.994;8.820;2023-02-23T08:22:31;32.20;;;17.97;;
7383;SDS011;3733;47.994;8.820;2023-02-23T08:24:56;33.00;;;16.93;;
7383;SDS011;3733;47.994;8.820;2023-02-23T08:27:22;38.10;;;18.27;;
7383;SDS011;3733;47.994;8.820;2023-02-23T08:29:48;34.03;;;15.70;;
7383;SDS011;3733;47.994;8.820;2023-02-23T08:32:16;29.20;;;15.87;;
7383;SDS011;3733;47.994;8.820;2023-02-23T08:34:43;29.40;;;16.20;;
7383;SDS011;3733;47.994;8.820;2023-02-23T08:37:08;27.77;;;16.43;;
7383;SDS011;3733;47.994;8.820;2023-02-23T08:39:34;27.33;;;15.10;;
7383;SDS011;3733;47.994;8.820;2023-02-23T08:42:00;32.40;;;15.70;;
7383;SDS011;3733;47.994;8.820;2023-02-23T08:44:26;33.70;;;16.60;;
7383;SDS011;3733;47.994;8.820;2023-02-23T08:46:52;32.13;;;16.00;;
7383;SDS011;3733;47.994;8.820;2023-02-23T08:49:19;37.57;;;15.70;;
7383;SDS011;3733;47.994;8.820;2023-02-23T08:51:45;31.73;;;14.87;;
7383;SDS011;3733;47.994;8.820;2023-02-23T08:54:11;28.23;;;14.60;;
7383;SDS011;3733;47.994;8.820;2023-02-23T08:56:39;25.57;;;14.77;;
7383;SDS011;3733;47.994;8.820;2023-02-23T08:59:05;33.00;;;15.40;;
7383;SDS011;3733;47.994;8.820;2023-02-23T09:01:31;29.83;;;16.30;;
7383;SDS011;3733;47.994;8.820;2023-02-23T09:03:57;26.30;;;15.63;;
7383;SDS011;3733;47.994;8.820;2023-02-23T09:06:24;31.47;;;15.47;;
7383;SDS011;3733;47.994;8.820;2023-02-23T09:08:50;27.43;;;13.67;;
7383;SDS011;3733;47.994;8.820;2023-02-23T09:11:18;31.13;;;15.83;;
7383;SDS011;3733;47.994;8.820;2023-02-23T09:13:44;30.93;;;15.27;;
7383;SDS011;3733;47.994;8.820;2023-02-23T09:16:09;27.97;;;15.10;;
7383;SDS011;3733;47.994;8.820;2023-02-23T09:18:36;29.67;;;14.90;;
7383;SDS011;3733;47.994;8.820;2023-02-23T09:21:05;30.97;;;15.57;;
7383;SDS011;3733;47.994;8.820;2023-02-23T09:23:35;30.17;;;15.30;;
7383;SDS011;3733;47.994;8.820;2023-02-23T09:26:05;26.10;;;15.07;;
7383;SDS011;3733;47.994;8.820;2023-02-23T09:28:33;25.40;;;14.90;;
7383;SDS011;3733;47.994;8.820;2023-02-23T09:31:12;27.40;;;15.23;;
7383;SDS011;3733;47.994;8.820;2023-02-23T09:33:39;34.37;;;16.50;;
7383;SDS011;3733;47.994;8.820;2023-02-23T09:36:09;29.00;;;16.93;;
7383;SDS011;3733;47.994;8.820;2023-02-23T09:38:37;28.73;;;16.30;;
7383;SDS011;3733;47.994;8.820;2023-02-23T09:41:03;33.27;;;16.20;;
7383;SDS011;3733;47.994;8.820;2023-02-23T09:46:44;29.50;;;14.80;;
7383;SDS011;3733;47.994;8.820;2023-02-23T09:49:19;33.57;;;14.80;;
7383;SDS011;3733;47.994;8.820;2023-02-23T09:51:48;38.57;;;16.20;;
7383;SDS011;3733;47.994;8.820;2023-02-23T09:54:21;29.60;;;16.33;;
7383;SDS011;3733;47.994;8.820;2023-02-23T09:56:49;31.27;;;15.60;;
7383;SDS011;3733;47.994;8.820;2023-02-23T09:59:18;31.07;;;16.40;;
7383;SDS011;3733;47.994;8.820;2023-02-23T10:06:47;28.37;;;15.30;;
7383;SDS011;3733;47.994;8.820;2023-02-23T10:12:28;36.00;;;17.77;;
7383;SDS011;3733;47.994;8.820;2023-02-23T10:20:40;33.30;;;16.93;;
7383;SDS011;3733;47.994;8.820;2023-02-23T10:23:25;31.47;;;16.63;;
7383;SDS011;3733;47.994;8.820;2023-02-23T10:25:56;38.13;;;17.67;;
7383;SDS011;3733;47.994;8.820;2023-02-23T10:28:24;35.90;;;17.10;;
7383;SDS011;3733;47.994;8.820;2023-02-23T10:30:52;31.40;;;17.77;;
7383;SDS011;3733;47.994;8.820;2023-02-23T10:33:21;32.47;;;17.10;;
7383;SDS011;3733;47.994;8.820;2023-02-23T10:35:49;34.17;;;17.73;;
7383;SDS011;3733;47.994;8.820;2023-02-23T10:38:19;28.33;;;16.43;;
7383;SDS011;3733;47.994;8.820;2023-02-23T10:40:48;35.97;;;16.83;;
7383;SDS011;3733;47.994;8.820;2023-02-23T10:43:18;30.00;;;17.20;;
7383;SDS011;3733;47.994;8.820;2023-02-23T10:45:45;36.93;;;18.07;;
7383;SDS011;3733;47.994;8.820;2023-02-23T10:51:13;26.43;;;15.30;;
7383;SDS011;3733;47.994;8.820;2023-02-23T10:53:44;28.83;;;15.90;;
7383;SDS011;3733;47.994;8.820;2023-02-23T10:56:13;33.47;;;15.90;;
7383;SDS011;3733;47.994;8.820;2023-02-23T10:58:45;41.83;;;16.53;;
7383;SDS011;3733;47.994;8.820;2023-02-23T11:01:13;28.60;;;16.53;;
7383;SDS011;3733;47.994;8.820;2023-02-23T11:03:49;32.20;;;15.83;;
7383;SDS011;3733;47.994;8.820;2023-02-23T11:08:53;32.53;;;14.90;;
7383;SDS011;3733;47.994;8.820;2023-02-23T11:11:23;33.50;;;15.60;;
7383;SDS011;3733;47.994;8.820;2023-02-23T11:13:52;27.47;;;14.93;;
7383;SDS011;3733;47.994;8.820;2023-02-23T11:16:21;34.33;;;15.20;;
7383;SDS011;3733;47.994;8.820;2023-02-23T11:18:50;24.07;;;14.47;;
7383;SDS011;3733;47.994;8.820;2023-02-23T11:21:37;26.10;;;13.20;;
7383;SDS011;3733;47.994;8.820;2023-02-23T11:24:17;35.73;;;14.43;;
7383;SDS011;3733;47.994;8.820;2023-02-23T11:26:50;22.67;;;11.80;;
7383;SDS011;3733;47.994;8.820;2023-02-23T11:29:21;23.37;;;12.00;;
7383;SDS011;3733;47.994;8.820;2023-02-23T11:31:54;24.17;;;11.20;;
7383;SDS011;3733;47.994;8.820;2023-02-23T11:34:27;29.50;;;13.17;;
7383;SDS011;3733;47.994;8.820;2023-02-23T11:37:36;21.50;;;12.50;;
7383;SDS011;3733;47.994;8.820;2023-02-23T11:42:21;24.53;;;11.33;;
7383;SDS011;3733;47.994;8.820;2023-02-23T11:47:26;22.47;;;10.53;;
7383;SDS011;3733;47.994;8.820;2023-02-23T11:49:53;23.60;;;11.70;;
7383;SDS011;3733;47.994;8.820;2023-02-23T11:52:20;19.03;;;10.50;;
7383;SDS011;3733;47.994;8.820;2023-02-23T11:54:52;22.40;;;10.00;;
7383;SDS011;3733;47.994;8.820;2023-02-23T11:57:24;19.40;;;10.90;;
7383;SDS011;3733;47.994;8.820;2023-02-23T11:59:53;18.60;;;10.77;;
7383;SDS011;3733;47.994;8.820;2023-02-23T12:02:25;20.30;;;10.80;;
7383;SDS011;3733;47.994;8.820;2023-02-23T12:05:00;21.80;;;11.33;;
7383;SDS011;3733;47.994;8.820;2023-02-23T12:07:31;20.37;;;10.93;;
7383;SDS011;3733;47.994;8.820;2023-02-23T12:13:02;21.83;;;10.70;;
7383;SDS011;3733;47.994;8.820;2023-02-23T12:15:46;29.00;;;11.17;;
7383;SDS011;3733;47.994;8.820;2023-02-23T12:20:53;18.53;;;10.20;;
7383;SDS011;3733;47.994;8.820;2023-02-23T12:23:23;18.07;;;10.20;;
7383;SDS011;3733;47.994;8.820;2023-02-23T12:25:58;19.73;;;8.97;;
7383;SDS011;3733;47.994;8.820;2023-02-23T12:28:44;17.60;;;8.60;;
7383;SDS011;3733;47.994;8.820;2023-02-23T12:31:32;16.80;;;9.70;;
7383;SDS011;3733;47.994;8.820;2023-02-23T12:34:08;24.47;;;9.90;;
7383;SDS011;3733;47.994;8.820;2023-02-23T12:36:41;16.30;;;9.20;;
7383;SDS011;3733;47.994;8.820;2023-02-23T12:39:24;18.43;;;9.20;;
7383;SDS011;3733;47.994;8.820;2023-02-23T12:42:12;19.83;;;9.57;;
7383;SDS011;3733;47.994;8.820;2023-02-23T12:44:50;14.20;;;8.90;;
7383;SDS011;3733;47.994;8.820;2023-02-23T12:50:26;17.70;;;8.63;;
7383;SDS011;3733;47.994;8.820;2023-02-23T13:01:26;21.10;;;8.97;;
7383;SDS011;3733;47.994;8.820;2023-02-23T13:04:08;20.40;;;9.77;;
7383;SDS011;3733;47.994;8.820;2023-02-23T13:20:23;19.23;;;8.60;;
7383;SDS011;3733;47.994;8.820;2023-02-23T13:25:36;16.33;;;7.70;;
7383;SDS011;3733;47.994;8.820;2023-02-23T13:28:12;15.27;;;7.87;;
7383;SDS011;3733;47.994;8.820;2023-02-23T13:30:44;15.80;;;8.80;;
7383;SDS011;3733;47.994;8.820;2023-02-23T13:33:20;25.50;;;9.00;;
7383;SDS011;3733;47.994;8.820;2023-02-23T13:35:51;14.37;;;8.27;;
7383;SDS011;3733;47.994;8.820;2023-02-23T13:43:48;15.83;;;7.37;;
7383;SDS011;3733;47.994;8.820;2023-02-23T13:49:21;15.03;;;8.73;;
7383;SDS011;3733;47.994;8.820;2023-02-23T13:51:58;20.57;;;9.23;;
7383;SDS011;3733;47.994;8.820;2023-02-23T13:54:54;18.83;;;9.37;;
7383;SDS011;3733;47.994;8.820;2023-02-23T13:57:27;20.93;;;9.23;;
7383;SDS011;3733;47.994;8.820;2023-02-23T13:59:54;22.83;;;9.07;;
7383;SDS011;3733;47.994;8.820;2023-02-23T14:05:10;14.73;;;8.10;;
7383;SDS011;3733;47.994;8.820;2023-02-23T14:07:40;27.70;;;9.73;;
7383;SDS011;3733;47.994;8.820;2023-02-23T14:10:15;18.73;;;8.90;;
7383;SDS011;3733;47.994;8.820;2023-02-23T14:13:02;19.23;;;8.07;;
7383;SDS011;3733;47.994;8.820;2023-02-23T14:18:03;26.30;;;7.77;;
7383;SDS011;3733;47.994;8.820;2023-02-23T14:20:55;22.30;;;9.90;;
7383;SDS011;3733;47.994;8.820;2023-02-23T14:26:44;18.60;;;7.57;;
7383;SDS011;3733;47.994;8.820;2023-02-23T14:29:27;20.47;;;7.50;;
7383;SDS011;3733;47.994;8.820;2023-02-23T14:40:06;19.27;;;8.50;;
7383;SDS011;3733;47.994;8.820;2023-02-23T14:42:39;13.60;;;7.60;;
7383;SDS011;3733;47.994;8.820;2023-02-23T14:45:38;18.40;;;8.00;;
7383;SDS011;3733;47.994;8.820;2023-02-23T14:48:02;21.33;;;8.10;;
7383;SDS011;3733;47.994;8.820;2023-02-23T14:50:33;20.33;;;8.30;;
7383;SDS011;3733;47.994;8.820;2023-02-23T14:53:00;30.17;;;9.93;;
7383;SDS011;3733;47.994;8.820;2023-02-23T14:55:32;20.50;;;9.10;;
7383;SDS011;3733;47.994;8.820;2023-02-23T14:58:17;22.73;;;9.00;;
7383;SDS011;3733;47.994;8.820;2023-02-23T15:00:47;24.53;;;9.50;;
7383;SDS011;3733;47.994;8.820;2023-02-23T15:03:15;21.87;;;8.80;;
7383;SDS011;3733;47.994;8.820;2023-02-23T15:05:42;22.00;;;8.80;;
7383;SDS011;3733;47.994;8.820;2023-02-23T15:08:14;18.20;;;7.33;;
7383;SDS011;3733;47.994;8.820;2023-02-23T15:10:43;16.17;;;6.07;;
7383;SDS011;3733;47.994;8.820;2023-02-23T15:13:16;11.50;;;5.50;;
7383;SDS011;3733;47.994;8.820;2023-02-23T15:15:45;20.43;;;5.77;;
7383;SDS011;3733;47.994;8.820;2023-02-23T15:18:15;13.70;;;5.50;;
7383;SDS011;3733;47.994;8.820;2023-02-23T15:20:51;11.10;;;4.53;;
7383;SDS011;3733;47.994;8.820;2023-02-23T15:23:17;22.63;;;5.77;;
7383;SDS011;3733;47.994;8.820;2023-02-23T15:25:44;20.10;;;6.23;;
7383;SDS011;3733;47.994;8.820;2023-02-23T15:28:27;16.03;;;4.50;;
7383;SDS011;3733;47.994;8.820;2023-02-23T15:31:00;13.87;;;4.40;;
7383;SDS011;3733;47.994;8.820;2023-02-23T15:33:28;14.80;;;4.70;;
7383;SDS011;3733;47.994;8.820;2023-02-23T15:38:21;14.30;;;4.50;;
7383;SDS011;3733;47.994;8.820;2023-02-23T15:40:54;12.43;;;3.87;;
7383;SDS011;3733;47.994;8.820;2023-02-23T15:43:22;24.70;;;5.30;;
7383;SDS011;3733;47.994;8.820;2023-02-23T15:45:49;17.37;;;4.60;;
7383;SDS011;3733;47.994;8.820;2023-02-23T15:48:21;12.77;;;4.20;;
7383;SDS011;3733;47.994;8.820;2023-02-23T15:50:50;15.50;;;5.03;;
7383;SDS011;3733;47.994;8.820;2023-02-23T15:55:56;9.53;;;4.27;;
7383;SDS011;3733;47.994;8.820;2023-02-23T15:58:48;19.43;;;5.10;;
7383;SDS011;3733;47.994;8.820;2023-02-23T16:01:19;11.53;;;4.90;;
7383;SDS011;3733;47.994;8.820;2023-02-23T16:04:05;16.53;;;5.30;;
7383;SDS011;3733;47.994;8.820;2023-02-23T16:06:35;11.70;;;4.57;;
7383;SDS011;3733;47.994;8.820;2023-02-23T16:11:33;16.60;;;4.90;;
7383;SDS011;3733;47.994;8.820;2023-02-23T16:14:00;21.23;;;5.53;;
7383;SDS011;3733;47.994;8.820;2023-02-23T16:16:28;20.90;;;6.13;;
7383;SDS011;3733;47.994;8.820;2023-02-23T16:18:54;18.73;;;6.67;;
7383;SDS011;3733;47.994;8.820;2023-02-23T16:21:28;17.50;;;5.93;;
7383;SDS011;3733;47.994;8.820;2023-02-23T16:23:55;9.20;;;4.77;;
7383;SDS011;3733;47.994;8.820;2023-02-23T16:26:24;16.57;;;5.50;;
7383;SDS011;3733;47.994;8.820;2023-02-23T16:29:06;14.47;;;5.20;;
7383;SDS011;3733;47.994;8.820;2023-02-23T16:31:44;22.37;;;10.70;;
7383;SDS011;3733;47.994;8.820;2023-02-23T16:34:31;18.37;;;7.63;;
7383;SDS011;3733;47.994;8.820;2023-02-23T16:37:00;23.83;;;6.33;;
7383;SDS011;3733;47.994;8.820;2023-02-23T16:39:29;21.97;;;6.90;;
7383;SDS011;3733;47.994;8.820;2023-02-23T16:41:57;23.67;;;5.90;;
7383;SDS011;3733;47.994;8.820;2023-02-23T16:44:24;14.67;;;6.03;;
7383;SDS011;3733;47.994;8.820;2023-02-23T16:49:26;14.07;;;5.87;;
7383;SDS011;3733;47.994;8.820;2023-02-23T16:51:55;14.47;;;5.97;;
7383;SDS011;3733;47.994;8.820;2023-02-23T16:54:21;18.00;;;5.37;;
7383;SDS011;3733;47.994;8.820;2023-02-23T16:56:47;14.07;;;4.53;;
7383;SDS011;3733;47.994;8.820;2023-02-23T16:59:14;20.00;;;5.67;;
7383;SDS011;3733;47.994;8.820;2023-02-23T17:01:42;30.47;;;5.80;;
7383;SDS011;3733;47.994;8.820;2023-02-23T17:04:11;13.67;;;5.60;;
7383;SDS011;3733;47.994;8.820;2023-02-23T17:06:39;14.07;;;5.80;;
7383;SDS011;3733;47.994;8.820;2023-02-23T17:09:07;15.93;;;6.13;;
7383;SDS011;3733;47.994;8.820;2023-02-23T17:11:36;17.93;;;5.00;;
7383;SDS011;3733;47.994;8.820;2023-02-23T17:14:02;27.00;;;9.83;;
7383;SDS011;3733;47.994;8.820;2023-02-23T17:16:28;57.20;;;16.47;;
7383;SDS011;3733;47.994;8.820;2023-02-23T17:18:54;57.27;;;16.47;;
7383;SDS011;3733;47.994;8.820;2023-02-23T17:21:23;38.53;;;10.60;;
7383;SDS011;3733;47.994;8.820;2023-02-23T17:23:50;23.93;;;9.10;;
7383;SDS011;3733;47.994;8.820;2023-02-23T17:26:18;16.53;;;6.70;;
7383;SDS011;3733;47.994;8.820;2023-02-23T17:28:45;20.17;;;6.80;;
7383;SDS011;3733;47.994;8.820;2023-02-23T17:31:12;20.73;;;6.63;;
7383;SDS011;3733;47.994;8.820;2023-02-23T17:33:40;26.80;;;6.03;;
7383;SDS011;3733;47.994;8.820;2023-02-23T17:36:07;22.40;;;5.93;;
7383;SDS011;3733;47.994;8.820;2023-02-23T17:38:35;19.27;;;5.80;;